Time;durP1;ratioP1;P1;durP2;ratioP2;P2;SDS_P1;SDS_P2;PMS_P1;PMS_P2;Temp;Humidity;BMP_temperature;BMP_pressure;BME280_temperature;BME280_humidity;BME280_pressure;Samples;Min_cycle;Max_cycle;Signal;HPM_P1;HPM_P2
2024/01/04 00:00:29;;;;;;;3.33;1.40;;;;;;;5.94;100.00;97687.91;4245843;28;22361;-70
2024/01/04 00:02:55;;;;;;;4.57;2.00;;;;;;;5.94;100.00;97686.06;4259721;28;20217;-70
2024/01/04 00:05:22;;;;;;;7.27;2.80;;;;;;;5.95;100.00;97694.97;4256925;28;21394;-72
2024/01/04 00:07:48;;;;;;;1.07;1.00;;;;;;;6.03;100.00;97692.22;4229274;28;21144;-72
2024/01/04 00:10:15;;;;;;;4.67;1.47;;;;;;;5.96;100.00;97697.44;4254121;28;20353;-72
2024/01/04 00:12:42;;;;;;;1.50;0.67;;;;;;;5.95;100.00;97698.47;4269508;28;20623;-73
2024/01/04 00:15:08;;;;;;;1.10;0.60;;;;;;;6.01;100.00;97695.06;4252197;28;21886;-72
2024/01/04 00:17:35;;;;;;;1.03;0.47;;;;;;;6.00;100.00;97706.00;4258824;28;23136;-72
2024/01/04 00:20:02;;;;;;;1.67;1.57;;;;;;;6.04;100.00;97704.63;4250138;28;20238;-73
2024/01/04 00:22:29;;;;;;;3.70;0.90;;;;;;;5.98;100.00;97698.09;4258308;28;21815;-72
2024/01/04 00:24:56;;;;;;;2.57;1.57;;;;;;;5.92;100.00;97708.75;4255585;28;20234;-72
2024/01/04 00:27:22;;;;;;;5.30;2.07;;;;;;;5.93;100.00;97705.03;4271902;28;20286;-72
2024/01/04 00:29:48;;;;;;;3.90;1.57;;;;;;;5.89;100.00;97704.59;4262826;28;20279;-70
2024/01/04 00:32:15;;;;;;;3.47;1.93;;;;;;;5.87;100.00;97703.94;4265161;28;25054;-70
2024/01/04 00:34:41;;;;;;;1.17;0.67;;;;;;;5.94;100.00;97709.41;4252925;28;20526;-70
2024/01/04 00:37:08;;;;;;;4.10;2.47;;;;;;;5.89;100.00;97712.63;4248710;28;20295;-71
2024/01/04 00:39:34;;;;;;;8.37;2.93;;;;;;;5.90;100.00;97703.56;4259180;28;20286;-72
2024/01/04 00:42:02;;;;;;;7.13;1.57;;;;;;;5.93;100.00;97708.56;4264396;28;20667;-71
2024/01/04 00:44:28;;;;;;;2.63;1.20;;;;;;;5.89;100.00;97709.94;4253173;28;20233;-71
2024/01/04 00:46:55;;;;;;;2.80;0.30;;;;;;;5.91;100.00;97702.56;4253917;28;21025;-71
2024/01/04 00:49:22;;;;;;;3.60;1.60;;;;;;;5.92;100.00;97714.97;4261210;28;20299;-72
2024/01/04 00:51:48;;;;;;;3.50;2.03;;;;;;;5.90;100.00;97714.31;4262288;28;23686;-71
2024/01/04 00:54:15;;;;;;;5.93;1.27;;;;;;;5.90;100.00;97711.63;4246768;28;20649;-71
2024/01/04 00:56:42;;;;;;;6.80;1.60;;;;;;;5.89;100.00;97711.81;4237072;28;20239;-72
2024/01/04 00:59:08;;;;;;;0.63;0.30;;;;;;;5.87;100.00;97706.59;4256748;28;20340;-72
2024/01/04 01:01:35;;;;;;;4.63;1.70;;;;;;;5.87;100.00;97718.19;4257736;28;20313;-72
2024/01/04 01:04:01;;;;;;;0.97;0.67;;;;;;;5.89;100.00;97709.94;4259108;28;20448;-74
2024/01/04 01:06:28;;;;;;;6.73;1.73;;;;;;;5.86;100.00;97715.69;4245906;28;20270;-70
2024/01/04 01:08:55;;;;;;;4.13;0.83;;;;;;;5.92;100.00;97716.81;4273969;28;20659;-72
2024/01/04 01:11:22;;;;;;;0.50;0.47;;;;;;;5.89;100.00;97704.59;4260839;28;20305;-74
2024/01/04 01:13:48;;;;;;;2.83;0.87;;;;;;;5.88;100.00;97713.66;4253090;28;21149;-70
2024/01/04 01:16:15;;;;;;;0.77;0.53;;;;;;;5.89;100.00;97709.13;4255829;28;20243;-72
2024/01/04 01:18:41;;;;;;;6.70;2.20;;;;;;;5.89;100.00;97707.25;4257974;28;20352;-70
2024/01/04 01:21:08;;;;;;;0.00;0.00;;;;;;;5.91;100.00;97707.06;4255745;28;20229;-72
2024/01/04 01:23:35;;;;;;;0.83;0.40;;;;;;;5.91;100.00;97715.97;4254585;28;20233;-72
2024/01/04 01:26:02;;;;;;;0.00;0.00;;;;;;;5.91;100.00;97721.34;4256641;28;22066;-72
2024/01/04 01:28:29;;;;;;;0.60;0.40;;;;;;;6.01;100.00;97718.41;4255607;28;20237;-71
2024/01/04 01:30:56;;;;;;;2.57;1.33;;;;;;;5.93;100.00;97710.41;4261229;28;20229;-72
2024/01/04 01:33:22;;;;;;;0.00;0.00;;;;;;;5.95;100.00;97717.25;4253993;28;20248;-72
2024/01/04 01:35:49;;;;;;;1.80;1.70;;;;;;;6.02;100.00;97723.59;4251456;28;20296;-71
2024/01/04 01:38:15;;;;;;;0.10;0.10;;;;;;;5.96;100.00;97718.94;4248660;28;20233;-71
2024/01/04 01:40:42;;;;;;;0.63;0.53;;;;;;;5.97;100.00;97725.97;4256550;28;20229;-71
2024/01/04 01:43:08;;;;;;;1.50;0.63;;;;;;;5.92;100.00;97717.66;4254111;28;20664;-70
2024/01/04 01:45:35;;;;;;;2.27;1.20;;;;;;;5.97;100.00;97723.28;4252190;28;20496;-71
2024/01/04 01:48:01;;;;;;;0.20;0.10;;;;;;;6.01;100.00;97724.59;4250069;28;20233;-72
2024/01/04 01:50:28;;;;;;;0.97;0.53;;;;;;;5.96;100.00;97724.31;4255397;28;20433;-71
2024/01/04 01:52:55;;;;;;;0.30;0.30;;;;;;;5.96;100.00;97720.81;4239166;28;21472;-71
2024/01/04 01:55:24;;;;;;;4.70;1.87;;;;;;;5.93;100.00;97727.34;4249338;28;22092;-70
2024/01/04 01:57:51;;;;;;;3.70;1.13;;;;;;;5.96;100.00;97715.44;4256072;28;20241;-72
2024/01/04 02:00:18;;;;;;;7.37;3.47;;;;;;;5.93;100.00;97716.59;4258405;28;20467;-72
2024/01/04 02:02:48;;;;;;;1.57;0.80;;;;;;;5.94;100.00;97720.16;4249242;28;21328;-70
2024/01/04 02:05:15;;;;;;;2.17;1.83;;;;;;;5.91;100.00;97715.13;4257709;28;21196;-73
2024/01/04 02:07:45;;;;;;;3.50;0.83;;;;;;;5.93;100.00;97713.09;4260939;28;21714;-71
2024/01/04 02:10:13;;;;;;;8.37;3.00;;;;;;;5.90;100.00;97714.31;4235332;28;20229;-72
2024/01/04 02:12:39;;;;;;;8.57;1.80;;;;;;;5.90;100.00;97706.25;4250730;28;20387;-71
2024/01/04 02:15:07;;;;;;;3.20;1.03;;;;;;;5.90;100.00;97716.16;4256641;28;23141;-71
2024/01/04 02:17:34;;;;;;;2.37;1.03;;;;;;;5.90;100.00;97717.00;4243520;28;21759;-70
2024/01/04 02:20:01;;;;;;;0.00;0.00;;;;;;;5.90;100.00;97710.78;4245940;28;20233;-71
2024/01/04 02:22:28;;;;;;;0.10;0.10;;;;;;;5.89;100.00;97715.31;4247659;28;20241;-71
2024/01/04 02:24:55;;;;;;;2.50;0.70;;;;;;;5.85;100.00;97705.97;4245395;28;20235;-73
2024/01/04 02:27:21;;;;;;;0.57;0.53;;;;;;;5.84;100.00;97707.00;4254670;28;21854;-72
2024/01/04 02:29:48;;;;;;;0.00;0.00;;;;;;;5.87;100.00;97710.16;4252183;28;25155;-72
2024/01/04 02:32:14;;;;;;;0.07;0.07;;;;;;;5.83;100.00;97711.50;4254534;28;20296;-71
2024/01/04 02:34:41;;;;;;;2.73;0.83;;;;;;;5.82;100.00;97704.47;4251907;28;20232;-71
2024/01/04 02:37:07;;;;;;;0.00;0.00;;;;;;;5.83;100.00;97705.31;4267718;28;21190;-72
2024/01/04 02:39:33;;;;;;;0.00;0.00;;;;;;;5.87;100.00;97706.59;4253981;28;20291;-69
2024/01/04 02:42:00;;;;;;;0.20;0.20;;;;;;;5.89;100.00;97701.06;4252662;28;22977;-71
2024/01/04 02:44:26;;;;;;;0.27;0.27;;;;;;;5.87;100.00;97698.56;4255807;28;20253;-73
2024/01/04 02:46:53;;;;;;;1.93;1.07;;;;;;;5.85;100.00;97704.13;4244771;28;20561;-71
2024/01/04 02:49:20;;;;;;;0.00;0.00;;;;;;;5.85;100.00;97697.94;4253993;28;20370;-71
2024/01/04 02:51:47;;;;;;;0.13;0.13;;;;;;;5.86;100.00;97700.41;4249405;28;21071;-71
2024/01/04 02:54:13;;;;;;;0.23;0.20;;;;;;;5.82;100.00;97698.28;4251466;28;20332;-73
2024/01/04 02:56:40;;;;;;;0.10;0.10;;;;;;;5.84;100.00;97698.94;4263158;28;20237;-71
2024/01/04 02:59:07;;;;;;;1.40;0.77;;;;;;;5.80;100.00;97693.13;4250741;28;21861;-73
2024/01/04 03:01:34;;;;;;;0.10;0.10;;;;;;;5.81;100.00;97694.78;4253821;28;20333;-70
2024/01/04 03:04:00;;;;;;;8.40;1.37;;;;;;;5.80;100.00;97700.31;4258277;28;20233;-71
2024/01/04 03:06:29;;;;;;;0.50;0.50;;;;;;;5.82;100.00;97695.59;4255136;28;20301;-72
2024/01/04 03:08:56;;;;;;;1.73;0.87;;;;;;;5.81;100.00;97691.25;4243637;28;20242;-72
2024/01/04 03:11:23;;;;;;;2.53;1.13;;;;;;;5.76;100.00;97693.66;4256928;28;20378;-72
2024/01/04 03:13:50;;;;;;;0.87;0.40;;;;;;;5.72;100.00;97683.28;4256521;28;20229;-71
2024/01/04 03:16:19;;;;;;;0.00;0.00;;;;;;;5.70;100.00;97688.00;4249728;28;21628;-71
2024/01/04 03:18:46;;;;;;;1.60;1.03;;;;;;;5.69;100.00;97696.22;4230547;28;20239;-72
2024/01/04 03:21:13;;;;;;;0.70;0.60;;;;;;;5.70;100.00;97681.81;4252120;28;20232;-73
2024/01/04 03:23:40;;;;;;;0.00;0.00;;;;;;;5.73;100.00;97681.44;4269044;28;20447;-72
2024/01/04 03:26:07;;;;;;;0.20;0.20;;;;;;;5.69;100.00;97683.66;4257776;28;20329;-71
2024/01/04 03:28:33;;;;;;;0.67;0.13;;;;;;;5.66;100.00;97684.03;4253460;28;21814;-73
2024/01/04 03:31:00;;;;;;;0.10;0.10;;;;;;;5.66;100.00;97683.19;4246672;28;20233;-70
2024/01/04 03:33:26;;;;;;;0.30;0.30;;;;;;;5.65;100.00;97684.22;4254624;28;20255;-71
2024/01/04 03:35:53;;;;;;;0.10;0.10;;;;;;;5.68;100.00;97683.84;4258063;28;20229;-70
2024/01/04 03:38:20;;;;;;;0.73;0.50;;;;;;;5.66;100.00;97670.59;4249773;28;21173;-70
2024/01/04 03:40:47;;;;;;;0.00;0.00;;;;;;;5.62;100.00;97682.75;4250775;28;22359;-71
2024/01/04 03:43:13;;;;;;;0.00;0.00;;;;;;;5.61;100.00;97682.91;4258912;28;20264;-71
2024/01/04 03:45:40;;;;;;;0.20;0.10;;;;;;;5.58;100.00;97678.75;4254873;28;20234;-72
2024/01/04 03:48:07;;;;;;;1.70;0.40;;;;;;;5.58;100.00;97672.56;4255605;28;20652;-71
2024/01/04 03:50:34;;;;;;;0.00;0.00;;;;;;;5.56;100.00;97675.41;4252407;28;20229;-72
2024/01/04 03:53:00;;;;;;;0.00;0.00;;;;;;;5.63;100.00;97683.56;4257759;28;20262;-71
2024/01/04 03:55:27;;;;;;;0.77;0.63;;;;;;;5.58;100.00;97670.69;4255041;28;22571;-70
2024/01/04 03:57:55;;;;;;;0.00;0.00;;;;;;;5.56;100.00;97670.03;4249460;28;20305;-71
2024/01/04 04:00:21;;;;;;;1.50;0.73;;;;;;;5.62;100.00;97673.84;4257639;28;20825;-71
2024/01/04 04:02:48;;;;;;;1.60;1.37;;;;;;;5.60;100.00;97674.03;4263812;28;20327;-71
2024/01/04 04:05:15;;;;;;;0.00;0.00;;;;;;;5.59;100.00;97666.16;4243588;28;21047;-71
2024/01/04 04:07:41;;;;;;;0.00;0.00;;;;;;;5.65;100.00;97676.16;4255113;28;20235;-71
2024/01/04 04:10:08;;;;;;;0.33;0.23;;;;;;;5.69;100.00;97678.31;4261986;28;20548;-71
2024/01/04 04:12:35;;;;;;;0.73;0.20;;;;;;;5.66;100.00;97680.53;4275072;28;20301;-70
2024/01/04 04:15:02;;;;;;;0.00;0.00;;;;;;;5.63;100.00;97670.13;4258558;28;20298;-73
2024/01/04 04:17:33;;;;;;;0.00;0.00;;;;;;;5.60;100.00;97667.81;4251930;28;20233;-70
2024/01/04 04:20:00;;;;;;;0.33;0.33;;;;;;;5.61;100.00;97666.78;4264006;28;20617;-69
2024/01/04 04:22:26;;;;;;;0.83;0.57;;;;;;;5.81;100.00;97664.41;4257088;28;21126;-71
2024/01/04 04:24:52;;;;;;;0.00;0.00;;;;;;;5.90;100.00;97662.44;4254826;28;20318;-69
2024/01/04 04:27:19;;;;;;;0.00;0.00;;;;;;;5.97;100.00;97661.53;4253303;28;20282;-70
2024/01/04 04:29:46;;;;;;;0.00;0.00;;;;;;;6.04;100.00;97656.28;4251666;28;21577;-71
2024/01/04 04:32:12;;;;;;;0.00;0.00;;;;;;;6.14;100.00;97661.38;4263903;28;21130;-73
2024/01/04 04:34:39;;;;;;;0.00;0.00;;;;;;;6.22;100.00;97665.78;4254436;28;22888;-71
2024/01/04 04:37:05;;;;;;;1.27;1.10;;;;;;;6.17;100.00;97669.03;4254631;28;20225;-70
2024/01/04 04:39:32;;;;;;;0.17;0.17;;;;;;;6.19;100.00;97670.50;4260680;28;20503;-71
2024/01/04 04:41:58;;;;;;;0.53;0.40;;;;;;;6.22;100.00;97658.56;4260736;28;20330;-71
2024/01/04 04:44:25;;;;;;;2.50;2.30;;;;;;;6.16;100.00;97670.91;4260152;28;22580;-71
2024/01/04 04:46:52;;;;;;;0.00;0.00;;;;;;;6.21;100.00;97669.47;4256906;28;20613;-71
2024/01/04 04:49:19;;;;;;;0.00;0.00;;;;;;;6.19;100.00;97661.63;4267819;28;23436;-71
2024/01/04 04:51:48;;;;;;;3.63;1.63;;;;;;;6.17;100.00;97669.88;4251970;28;20241;-72
2024/01/04 04:54:16;;;;;;;0.67;0.67;;;;;;;6.17;100.00;97672.56;4245750;28;23206;-70
2024/01/04 04:56:43;;;;;;;6.23;4.00;;;;;;;6.17;100.00;97669.88;4260757;28;21753;-72
2024/01/04 04:59:12;;;;;;;0.00;0.00;;;;;;;6.13;100.00;97665.88;4262368;28;20296;-71
2024/01/04 05:01:43;;;;;;;0.00;0.00;;;;;;;6.06;100.00;97674.91;4262182;28;21813;-69
2024/01/04 05:04:10;;;;;;;5.13;1.67;;;;;;;6.09;100.00;97675.34;4259634;28;20264;-71
2024/01/04 05:06:37;;;;;;;0.10;0.10;;;;;;;6.07;100.00;97671.19;4259527;28;20225;-70
2024/01/04 05:09:04;;;;;;;1.30;0.57;;;;;;;6.09;100.00;97655.69;4261438;28;25338;-72
2024/01/04 05:11:31;;;;;;;0.20;0.20;;;;;;;6.21;100.00;97667.66;4258377;28;20298;-70
2024/01/04 05:13:58;;;;;;;0.20;0.20;;;;;;;6.22;100.00;97669.31;4256979;28;22115;-71
2024/01/04 05:16:24;;;;;;;0.00;0.00;;;;;;;6.16;100.00;97672.72;4253552;28;21593;-72
2024/01/04 05:18:51;;;;;;;0.10;0.10;;;;;;;6.21;100.00;97673.03;4250281;28;20239;-71
2024/01/04 05:21:18;;;;;;;0.27;0.20;;;;;;;6.19;100.00;97670.50;4261320;28;20502;-71
2024/01/04 05:23:44;;;;;;;0.00;0.00;;;;;;;6.19;100.00;97670.50;4256649;28;20335;-70
2024/01/04 05:26:21;;;;;;;0.10;0.10;;;;;;;6.17;100.00;97667.19;4258634;28;20252;-70
2024/01/04 05:28:48;;;;;;;0.00;0.00;;;;;;;6.11;100.00;97664.41;4258564;28;20901;-70
2024/01/04 05:31:17;;;;;;;0.00;0.00;;;;;;;6.16;100.00;97675.41;4255883;28;20338;-70
2024/01/04 05:33:45;;;;;;;0.00;0.00;;;;;;;6.26;100.00;97684.03;4255162;28;20287;-72
2024/01/04 05:36:12;;;;;;;0.00;0.00;;;;;;;6.21;100.00;97675.72;4267284;28;20306;-71
2024/01/04 05:38:39;;;;;;;0.13;0.13;;;;;;;6.26;100.00;97683.22;4258655;28;20621;-72
2024/01/04 05:41:06;;;;;;;0.00;0.00;;;;;;;6.16;100.00;97683.47;4261442;28;20234;-70
2024/01/04 05:43:33;;;;;;;0.20;0.20;;;;;;;6.17;100.00;97687.84;4251147;28;20240;-70
2024/01/04 05:46:06;;;;;;;0.00;0.00;;;;;;;6.22;100.00;97684.59;4263335;28;21106;-71
2024/01/04 05:48:34;;;;;;;0.10;0.10;;;;;;;6.27;100.00;97691.06;4245892;28;20325;-71
2024/01/04 05:51:01;;;;;;;0.00;0.00;;;;;;;6.27;100.00;97691.06;4254536;28;20232;-71
2024/01/04 05:53:27;;;;;;;3.00;2.80;;;;;;;6.29;100.00;97688.19;4263501;28;20303;-71
2024/01/04 05:55:54;;;;;;;0.30;0.20;;;;;;;6.24;100.00;97701.34;4263382;28;20230;-71
2024/01/04 05:58:21;;;;;;;0.00;0.00;;;;;;;6.24;100.00;97691.44;4259525;28;20234;-70
2024/01/04 06:00:47;;;;;;;0.73;0.50;;;;;;;6.19;100.00;97693.84;4249171;28;20317;-72
2024/01/04 06:03:15;;;;;;;1.60;0.83;;;;;;;6.20;100.00;97695.53;4261585;28;20234;-69
2024/01/04 06:05:42;;;;;;;0.10;0.10;;;;;;;6.22;100.00;97698.88;4263871;28;21278;-73
2024/01/04 06:08:08;;;;;;;1.43;0.93;;;;;;;6.21;100.00;97702.56;4273486;28;20233;-71
2024/01/04 06:10:35;;;;;;;0.00;0.00;;;;;;;6.36;100.00;97707.09;4259072;28;20244;-73
2024/01/04 06:13:02;;;;;;;8.77;3.33;;;;;;;6.40;100.00;97711.06;4261691;28;20803;-72
2024/01/04 06:15:28;;;;;;;0.00;0.00;;;;;;;6.33;100.00;97713.66;4257504;28;20585;-70
2024/01/04 06:17:55;;;;;;;2.00;0.90;;;;;;;6.29;100.00;97712.38;4261661;28;20230;-71
2024/01/04 06:20:22;;;;;;;3.50;1.80;;;;;;;6.26;100.00;97707.38;4262240;28;20229;-71
2024/01/04 06:22:51;;;;;;;0.00;0.00;;;;;;;6.21;100.00;97712.47;4248330;28;22064;-72
2024/01/04 06:25:18;;;;;;;0.00;0.00;;;;;;;6.26;100.00;97715.44;4266749;28;21333;-70
2024/01/04 06:27:45;;;;;;;0.00;0.00;;;;;;;6.26;100.00;97713.56;4259690;28;21578;-66
2024/01/04 06:30:12;;;;;;;0.00;0.00;;;;;;;6.34;100.00;97713.47;4252133;28;21536;-73
2024/01/04 06:32:38;;;;;;;1.13;0.10;;;;;;;6.32;100.00;97717.38;4258768;28;20273;-70
2024/01/04 06:35:05;;;;;;;2.53;1.40;;;;;;;6.21;100.00;97717.84;4266819;28;20244;-70
2024/01/04 06:37:32;;;;;;;0.60;0.60;;;;;;;6.25;100.00;97711.09;4257540;28;20272;-70
2024/01/04 06:39:58;;;;;;;3.50;2.00;;;;;;;6.30;100.00;97714.88;4253875;28;23061;-72
2024/01/04 06:42:25;;;;;;;0.37;0.37;;;;;;;6.22;100.00;97706.94;4257117;28;20266;-69
2024/01/04 06:44:51;;;;;;;13.07;1.70;;;;;;;6.21;100.00;97709.78;4264901;28;20899;-69
2024/01/04 06:47:18;;;;;;;4.83;1.60;;;;;;;6.28;100.00;97710.69;4263623;28;20294;-71
2024/01/04 06:49:44;;;;;;;0.23;0.23;;;;;;;6.17;100.00;97701.25;4254423;28;21634;-75
2024/01/04 06:52:11;;;;;;;1.07;0.60;;;;;;;6.27;100.00;97709.06;4264428;28;20578;-72
2024/01/04 06:54:37;;;;;;;0.00;0.00;;;;;;;6.31;100.00;97704.97;4255715;28;20394;-71
2024/01/04 06:57:06;;;;;;;2.67;1.80;;;;;;;6.22;100.00;97709.63;4270554;28;20509;-72
2024/01/04 06:59:34;;;;;;;0.20;0.20;;;;;;;6.25;100.00;97703.03;4246597;28;21990;-72
2024/01/04 07:02:07;;;;;;;0.00;0.00;;;;;;;6.25;100.00;97703.03;4261998;28;20225;-68
2024/01/04 07:04:33;;;;;;;0.73;0.73;;;;;;;6.28;100.00;97702.63;4256246;28;20330;-73
2024/01/04 07:07:00;;;;;;;2.37;0.97;;;;;;;6.22;100.00;97698.88;4283448;28;20230;-69
2024/01/04 07:09:26;;;;;;;0.30;0.07;;;;;;;6.28;100.00;97703.47;4255216;28;20826;-71
2024/01/04 07:11:54;;;;;;;5.73;2.03;;;;;;;6.23;100.00;97700.50;4279397;28;21598;-69
2024/01/04 07:14:21;;;;;;;4.03;1.70;;;;;;;6.08;100.00;97697.84;4247837;28;20274;-71
2024/01/04 07:16:49;;;;;;;6.73;5.43;;;;;;;6.13;100.00;97702.66;4254513;28;21446;-72
2024/01/04 07:19:16;;;;;;;2.73;1.20;;;;;;;6.16;100.00;97700.44;4264249;28;20417;-71
2024/01/04 07:21:43;;;;;;;3.13;0.50;;;;;;;6.11;100.00;97704.69;4271216;28;20324;-72
2024/01/04 07:24:10;;;;;;;2.40;1.10;;;;;;;6.04;100.00;97704.63;4282014;28;21206;-70
2024/01/04 07:26:36;;;;;;;1.60;1.00;;;;;;;6.02;100.00;97702.09;4257481;28;20347;-70
2024/01/04 07:29:04;;;;;;;7.30;3.30;;;;;;;5.97;100.00;97696.44;4275196;28;20229;-69
2024/01/04 07:31:31;;;;;;;0.40;0.40;;;;;;;6.00;100.00;97700.63;4271809;28;20221;-70
2024/01/04 07:33:59;;;;;;;8.47;2.93;;;;;;;5.97;100.00;97706.31;4259120;28;20818;-69
2024/01/04 07:36:26;;;;;;;0.10;0.10;;;;;;;6.00;100.00;97709.50;4257152;28;20879;-70
2024/01/04 07:38:53;;;;;;;0.17;0.17;;;;;;;5.91;100.00;97699.88;4266471;28;20230;-70
2024/01/04 07:41:20;;;;;;;1.03;0.97;;;;;;;5.91;100.00;97701.69;4259525;28;21282;-71
2024/01/04 07:43:47;;;;;;;7.93;2.77;;;;;;;5.91;100.00;97707.94;4265888;28;21065;-72
2024/01/04 07:46:14;;;;;;;0.63;0.50;;;;;;;5.91;100.00;97694.50;4283107;28;20229;-72
2024/01/04 07:48:41;;;;;;;3.77;1.63;;;;;;;5.91;100.00;97697.19;4264684;28;23473;-69
2024/01/04 07:51:08;;;;;;;2.23;1.43;;;;;;;5.84;100.00;97697.06;4264923;28;20604;-71
2024/01/04 07:53:34;;;;;;;0.00;0.00;;;;;;;5.99;100.00;97707.00;4268916;28;22717;-70
2024/01/04 07:56:01;;;;;;;0.30;0.30;;;;;;;6.00;100.00;97706.00;4265327;28;20233;-65
2024/01/04 07:58:28;;;;;;;14.73;0.87;;;;;;;6.04;100.00;97701.94;4336007;28;20533;-65
2024/01/04 08:00:55;;;;;;;2.17;0.87;;;;;;;5.99;100.00;97712.38;4274061;28;20957;-66
2024/01/04 08:03:23;;;;;;;4.47;1.50;;;;;;;6.03;100.00;97706.47;4265247;28;23239;-68
2024/01/04 08:05:49;;;;;;;0.67;0.17;;;;;;;6.15;100.00;97701.47;4254784;28;21613;-68
2024/01/04 08:08:16;;;;;;;8.20;1.03;;;;;;;6.27;100.00;97704.50;4262533;28;22119;-69
2024/01/04 08:10:43;;;;;;;0.57;0.57;;;;;;;6.25;100.00;97700.34;4268899;28;25227;-66
2024/01/04 08:13:09;;;;;;;0.20;0.20;;;;;;;6.18;100.00;97697.56;4265845;28;20233;-69
2024/01/04 08:15:37;;;;;;;5.30;2.53;;;;;;;6.11;100.00;97700.19;4271887;28;20588;-69
2024/01/04 08:18:04;;;;;;;0.00;0.00;;;;;;;6.18;100.00;97700.25;4263979;28;21043;-67
2024/01/04 08:20:33;;;;;;;1.13;1.13;;;;;;;6.25;100.00;97694.97;4264167;28;20237;-68
2024/01/04 08:23:00;;;;;;;0.57;0.33;;;;;;;6.24;100.00;97702.19;4263680;28;20612;-69
2024/01/04 08:25:27;;;;;;;2.90;1.60;;;;;;;6.16;100.00;97707.66;4259363;28;22291;-69
2024/01/04 08:27:54;;;;;;;2.03;1.30;;;;;;;6.18;100.00;97709.16;4251081;28;20225;-67
2024/01/04 08:30:21;;;;;;;3.30;1.53;;;;;;;6.22;100.00;97701.56;4246301;28;26119;-67
2024/01/04 08:32:48;;;;;;;8.33;2.47;;;;;;;6.14;100.00;97705.16;4251851;28;25045;-66
2024/01/04 08:35:17;;;;;;;1.90;1.13;;;;;;;6.15;100.00;97709.50;4259209;28;23456;-67
2024/01/04 08:37:45;;;;;;;2.10;0.67;;;;;;;6.15;100.00;97714.06;4259655;28;20232;-70
2024/01/04 08:40:13;;;;;;;1.60;0.77;;;;;;;6.14;100.00;97701.66;4260817;28;20421;-66
2024/01/04 08:42:39;;;;;;;7.33;3.10;;;;;;;6.17;100.00;97703.94;4261326;28;20233;-67
2024/01/04 08:45:07;;;;;;;3.83;0.87;;;;;;;6.25;100.00;97711.91;4248774;28;25237;-69
2024/01/04 08:47:34;;;;;;;0.33;0.33;;;;;;;6.41;100.00;97707.34;4253697;28;21315;-70
2024/01/04 08:50:01;;;;;;;0.20;0.20;;;;;;;6.37;100.00;97706.88;4265496;28;20257;-68
2024/01/04 08:52:29;;;;;;;1.57;1.47;;;;;;;6.31;100.00;97716.53;4258308;28;20232;-70
2024/01/04 08:54:55;;;;;;;18.80;5.20;;;;;;;6.28;100.00;97716.91;4247688;28;20343;-68
2024/01/04 08:57:22;;;;;;;2.93;1.23;;;;;;;6.23;100.00;97713.94;4259145;28;20253;-67
2024/01/04 08:59:49;;;;;;;4.87;2.57;;;;;;;6.23;100.00;97722.00;4260503;28;22938;-68
2024/01/04 09:02:16;;;;;;;2.63;1.57;;;;;;;6.27;100.00;97719.81;4260449;28;22556;-69
2024/01/04 09:04:43;;;;;;;0.00;0.00;;;;;;;6.28;100.00;97726.81;4259859;28;20302;-70
2024/01/04 09:07:12;;;;;;;3.40;2.03;;;;;;;6.23;100.00;97718.50;4267018;28;20225;-70
2024/01/04 09:09:40;;;;;;;8.40;3.27;;;;;;;6.20;100.00;97722.38;4267469;28;20327;-68
2024/01/04 09:12:07;;;;;;;0.70;0.60;;;;;;;6.16;100.00;97723.75;4260672;28;20247;-70
2024/01/04 09:14:33;;;;;;;5.50;2.53;;;;;;;6.19;100.00;97718.03;4261251;28;20299;-68
2024/01/04 09:17:00;;;;;;;19.57;4.17;;;;;;;6.18;100.00;97724.41;4277451;28;20234;-68
2024/01/04 09:19:27;;;;;;;4.73;0.83;;;;;;;6.22;100.00;97723.03;4254810;28;20240;-69
2024/01/04 09:21:55;;;;;;;8.50;3.00;;;;;;;6.18;100.00;97729.78;4255082;28;20368;-68
2024/01/04 09:24:23;;;;;;;5.37;3.20;;;;;;;6.16;100.00;97723.75;4268212;28;21241;-68
2024/01/04 09:26:50;;;;;;;14.63;6.33;;;;;;;6.17;100.00;97726.28;4259964;28;20311;-69
2024/01/04 09:29:17;;;;;;;8.43;3.50;;;;;;;6.15;100.00;97738.25;4266303;28;20240;-70
2024/01/04 09:31:44;;;;;;;3.43;1.60;;;;;;;6.17;100.00;97731.66;4257331;28;20259;-69
2024/01/04 09:34:10;;;;;;;6.87;3.13;;;;;;;6.20;100.00;97733.13;4257686;28;20241;-70
2024/01/04 09:36:37;;;;;;;1.37;0.70;;;;;;;6.25;100.00;97729.88;4270549;28;20235;-71
2024/01/04 09:39:03;;;;;;;3.37;1.97;;;;;;;6.20;100.00;97725.06;4263541;28;20237;-69
2024/01/04 09:41:32;;;;;;;7.23;2.87;;;;;;;6.26;100.00;97726.19;4267080;28;20234;-68
2024/01/04 09:44:06;;;;;;;0.10;0.10;;;;;;;6.23;100.00;97722.00;4265681;28;20462;-69
2024/01/04 09:46:36;;;;;;;2.23;1.40;;;;;;;6.33;100.00;97721.72;4268291;28;21435;-67
2024/01/04 09:49:07;;;;;;;3.70;2.27;;;;;;;6.30;100.00;97714.88;4258807;28;20229;-67
2024/01/04 09:51:37;;;;;;;0.27;0.27;;;;;;;6.40;100.00;97725.34;4250584;28;22269;-72
2024/01/04 09:54:09;;;;;;;4.73;2.20;;;;;;;6.33;100.00;97722.56;4263303;28;20248;-71
2024/01/04 09:56:40;;;;;;;6.00;3.07;;;;;;;6.26;100.00;97721.63;4266696;28;20238;-69
2024/01/04 09:59:08;;;;;;;5.33;2.60;;;;;;;6.25;100.00;97725.34;4259527;28;22190;-68
2024/01/04 10:01:37;;;;;;;3.80;1.60;;;;;;;6.32;100.00;97726.25;4265344;28;22038;-68
2024/01/04 10:04:12;;;;;;;2.33;1.40;;;;;;;6.32;100.00;97720.06;4268483;28;21714;-68
2024/01/04 10:06:43;;;;;;;10.97;2.50;;;;;;;6.41;100.00;97724.31;4255468;28;25543;-71
2024/01/04 10:09:19;;;;;;;3.17;1.33;;;;;;;6.43;100.00;97727.63;4262470;28;20233;-71
2024/01/04 10:12:05;;;;;;;5.10;2.50;;;;;;;6.37;100.00;97717.63;4253891;28;20304;-71
2024/01/04 10:14:32;;;;;;;2.80;1.30;;;;;;;6.37;100.00;97728.38;4267744;28;20237;-69
2024/01/04 10:16:59;;;;;;;2.97;1.30;;;;;;;6.36;100.00;97724.03;4270930;28;20284;-69
2024/01/04 10:19:27;;;;;;;2.03;1.63;;;;;;;6.36;100.00;97720.53;4269212;28;20237;-71
2024/01/04 10:22:05;;;;;;;6.83;2.23;;;;;;;6.33;100.00;97727.09;4257978;28;20233;-71
2024/01/04 10:24:37;;;;;;;7.67;2.43;;;;;;;6.36;100.00;97728.59;4285620;28;20518;-70
2024/01/04 10:27:06;;;;;;;1.43;0.57;;;;;;;6.43;100.00;97734.88;4274775;28;20239;-71
2024/01/04 10:29:35;;;;;;;5.50;2.77;;;;;;;6.42;100.00;97735.88;4264774;28;20407;-68
2024/01/04 10:32:12;;;;;;;7.73;3.83;;;;;;;6.42;100.00;97738.56;4274088;28;20241;-67
2024/01/04 10:34:40;;;;;;;4.87;2.37;;;;;;;6.41;100.00;97735.06;4278404;28;20233;-69
2024/01/04 10:37:14;;;;;;;6.03;2.07;;;;;;;6.41;100.00;97736.91;4257026;28;21731;-70
2024/01/04 10:39:46;;;;;;;0.90;0.80;;;;;;;6.45;100.00;97738.22;4273899;28;20300;-68
2024/01/04 10:42:13;;;;;;;0.73;0.67;;;;;;;6.48;100.00;97744.03;4270649;28;20229;-68
2024/01/04 10:44:45;;;;;;;3.40;1.87;;;;;;;6.43;100.00;97735.69;4270630;28;21079;-67
2024/01/04 10:47:14;;;;;;;6.13;3.10;;;;;;;6.47;100.00;97738.84;4264645;28;22254;-68
2024/01/04 10:49:42;;;;;;;1.23;0.90;;;;;;;6.45;100.00;97730.97;4256036;28;20302;-67
2024/01/04 10:52:14;;;;;;;7.43;4.07;;;;;;;6.46;100.00;97737.16;4273765;28;21918;-69
2024/01/04 10:54:42;;;;;;;13.70;4.37;;;;;;;6.48;100.00;97725.22;4252275;28;20307;-71
2024/01/04 10:57:12;;;;;;;14.47;5.40;;;;;;;6.56;100.00;97721.59;4262042;28;21212;-66
2024/01/04 10:59:39;;;;;;;8.67;3.77;;;;;;;6.57;100.00;97717.06;4274116;28;20229;-69
2024/01/04 11:02:10;;;;;;;1.97;1.13;;;;;;;6.56;100.00;97724.28;4276729;28;20236;-70
2024/01/04 11:04:38;;;;;;;4.10;1.70;;;;;;;6.54;100.00;97723.63;4254900;28;20933;-71
2024/01/04 11:07:05;;;;;;;5.53;2.53;;;;;;;6.52;100.00;97725.69;4260216;28;21466;-70
2024/01/04 11:09:34;;;;;;;4.90;2.03;;;;;;;6.55;100.00;97725.28;4264028;28;21604;-71
2024/01/04 11:12:05;;;;;;;0.00;0.00;;;;;;;6.54;100.00;97723.63;4265099;28;20248;-68
2024/01/04 11:14:32;;;;;;;1.70;1.10;;;;;;;6.54;100.00;97728.19;4268784;28;20229;-68
2024/01/04 11:17:33;;;;;;;2.03;0.70;;;;;;;6.58;100.00;97719.56;4269216;28;24912;-71
2024/01/04 11:20:13;;;;;;;3.70;1.33;;;;;;;6.54;100.00;97722.81;4274293;28;20237;-68
2024/01/04 11:22:56;;;;;;;0.80;0.70;;;;;;;6.63;100.00;97721.69;4266105;28;20233;-68
2024/01/04 11:26:10;;;;;;;10.07;1.90;;;;;;;6.63;100.00;97719.00;4265569;28;25012;-70
2024/01/04 11:28:37;;;;;;;6.67;4.03;;;;;;;6.66;100.00;97721.28;4229218;28;20235;-67
2024/01/04 11:31:06;;;;;;;11.53;5.57;;;;;;;6.77;100.00;97730.72;4257088;28;20671;-68
2024/01/04 11:33:43;;;;;;;5.10;2.43;;;;;;;6.71;100.00;97720.72;4262138;28;20405;-71
2024/01/04 11:36:16;;;;;;;12.53;5.40;;;;;;;6.70;100.00;97713.66;4282411;28;20229;-70